createdAt,value
2019-05-03T00:02:28.880Z,15.26
2019-05-03T00:05:08.495Z,15.25
2019-05-03T00:07:37.551Z,15.19
2019-05-03T00:10:07.915Z,15.20
2019-05-03T00:12:37.137Z,15.21
2019-05-03T00:15:16.596Z,15.21
2019-05-03T00:17:45.649Z,15.21
2019-05-03T00:20:14.762Z,15.21
2019-05-03T00:22:43.901Z,15.21
2019-05-03T00:25:13.618Z,15.20
2019-05-03T00:27:42.885Z,15.19
2019-05-03T00:30:12.119Z,15.17
2019-05-03T00:32:42.743Z,15.17
2019-05-03T00:35:15.766Z,15.19
2019-05-03T00:37:46.899Z,15.19
2019-05-03T00:40:26.660Z,15.16
2019-05-03T00:42:55.754Z,15.13
2019-05-03T00:45:24.824Z,15.14
2019-05-03T00:47:53.945Z,15.14
2019-05-03T00:50:23.391Z,15.13
2019-05-03T00:52:52.717Z,15.13
2019-05-03T00:55:22.076Z,15.13
2019-05-03T00:57:52.146Z,15.09
2019-05-03T01:00:21.799Z,15.10
2019-05-03T01:02:51.684Z,15.11
2019-05-03T01:05:22.695Z,15.09
2019-05-03T01:07:52.542Z,15.08
2019-05-03T01:10:22.625Z,15.07
2019-05-03T01:12:52.466Z,15.04
2019-05-03T01:15:31.949Z,15.03
2019-05-03T01:18:03.664Z,15.03
2019-05-03T01:20:33.156Z,14.99
2019-05-03T01:23:02.223Z,14.94
2019-05-03T01:25:35.221Z,14.94
2019-05-03T01:28:02.046Z,14.90
2019-05-03T01:30:32.055Z,14.88
2019-05-03T01:33:02.834Z,14.88
2019-05-03T01:35:32.382Z,14.85
2019-05-03T01:38:02.559Z,14.85
2019-05-03T01:40:32.568Z,14.84
2019-05-03T01:43:02.241Z,14.84
2019-05-03T01:45:31.902Z,14.82
2019-05-03T01:48:29.659Z,14.80
2019-05-03T01:51:26.769Z,14.80
2019-05-03T01:53:55.810Z,14.76
2019-05-03T01:56:24.919Z,14.74
2019-05-03T01:58:53.958Z,14.74
2019-05-03T02:01:46.455Z,14.72
2019-05-03T02:04:46.228Z,14.70
2019-05-03T02:07:15.282Z,14.68
2019-05-03T02:09:44.430Z,14.67
2019-05-03T02:12:13.500Z,14.67
2019-05-03T02:14:42.575Z,14.67
2019-05-03T02:17:12.428Z,14.69
2019-05-03T02:19:42.128Z,14.73
2019-05-03T02:22:12.104Z,14.74
2019-05-03T02:24:42.244Z,14.77
2019-05-03T02:27:12.762Z,14.74
2019-05-03T02:29:41.957Z,14.72
2019-05-03T02:32:13.268Z,14.74
2019-05-03T02:34:43.958Z,14.73
2019-05-03T02:37:13.852Z,14.73
2019-05-03T02:39:43.162Z,14.73
2019-05-03T02:42:12.324Z,14.73
2019-05-03T02:44:41.423Z,14.71
2019-05-03T02:47:37.228Z,14.69
2019-05-03T02:50:16.462Z,14.67
2019-05-03T02:52:45.763Z,14.59
2019-05-03T02:55:16.229Z,14.54
2019-05-03T02:57:46.686Z,14.55
2019-05-03T03:00:16.837Z,14.52
2019-05-03T03:02:45.972Z,14.51
2019-05-03T03:05:16.648Z,14.49
2019-05-03T03:07:46.289Z,14.46
2019-05-03T03:10:16.233Z,14.43
2019-05-03T03:12:46.498Z,14.38
2019-05-03T03:15:16.388Z,14.37
2019-05-03T03:17:45.837Z,14.34
2019-05-03T03:20:16.110Z,14.35
2019-05-03T03:22:45.844Z,14.34
2019-05-03T03:25:25.573Z,14.37
2019-05-03T03:27:55.673Z,14.39
2019-05-03T03:30:40.121Z,14.34
2019-05-03T03:33:17.163Z,14.32
2019-05-03T03:35:48.875Z,14.32
2019-05-03T03:38:16.360Z,14.28
2019-05-03T03:40:45.546Z,14.29
2019-05-03T03:43:15.700Z,14.29
2019-05-03T03:45:45.505Z,14.29
2019-05-03T03:48:15.842Z,14.28
2019-05-03T03:50:45.746Z,14.27
2019-05-03T03:53:15.472Z,14.29
2019-05-03T03:55:47.258Z,14.29
2019-05-03T03:58:22.548Z,14.30
2019-05-03T04:00:47.246Z,14.29
2019-05-03T04:03:16.400Z,14.28
2019-05-03T04:05:46.788Z,14.29
2019-05-03T04:08:16.453Z,14.32
2019-05-03T04:10:46.405Z,14.29
2019-05-03T04:13:16.259Z,14.28
2019-05-03T04:16:01.461Z,14.26
2019-05-03T04:18:40.269Z,14.27
2019-05-03T04:21:09.316Z,14.23
2019-05-03T04:23:38.627Z,14.22
2019-05-03T04:26:07.659Z,14.21
2019-05-03T04:28:37.270Z,14.19
2019-05-03T04:31:06.451Z,14.19
2019-05-03T04:33:35.968Z,14.21
2019-05-03T04:36:05.642Z,14.23
2019-05-03T04:38:35.709Z,14.21
2019-05-03T04:41:05.902Z,14.21
2019-05-03T04:43:35.741Z,14.23
2019-05-03T04:46:09.649Z,14.20
2019-05-03T04:48:38.802Z,14.13
2019-05-03T04:51:07.995Z,14.06
2019-05-03T04:53:38.729Z,14.02
2019-05-03T04:56:07.751Z,13.99
2019-05-03T04:58:36.810Z,13.97
2019-05-03T05:01:06.886Z,13.91
2019-05-03T05:03:36.480Z,13.85
2019-05-03T05:06:06.533Z,13.81
2019-05-03T05:08:36.170Z,13.81
2019-05-03T05:11:09.694Z,13.80
2019-05-03T05:13:36.277Z,13.82
2019-05-03T05:16:06.086Z,13.85
2019-05-03T05:18:40.311Z,13.83
2019-05-03T05:21:22.775Z,13.77
2019-05-03T05:24:00.337Z,13.76
2019-05-03T05:26:37.153Z,13.75
2019-05-03T05:29:09.400Z,13.72
2019-05-03T05:31:38.543Z,13.74
2019-05-03T05:34:08.887Z,13.79
2019-05-03T05:36:38.088Z,13.82
2019-05-03T05:39:07.292Z,13.87
2019-05-03T05:41:36.360Z,13.88
2019-05-03T05:44:05.573Z,13.98
2019-05-03T05:46:41.468Z,14.06
2019-05-03T05:49:14.688Z,14.16
2019-05-03T05:51:44.509Z,14.31
2019-05-03T05:54:14.407Z,14.48
2019-05-03T05:57:08.366Z,14.66
2019-05-03T05:59:49.069Z,14.75
2019-05-03T06:02:18.856Z,14.81
2019-05-03T06:04:47.922Z,14.80
2019-05-03T06:07:48.247Z,14.80
2019-05-03T06:10:24.893Z,14.80
2019-05-03T06:13:06.550Z,14.83
2019-05-03T06:15:51.555Z,14.86
2019-05-03T06:18:25.661Z,14.93
2019-05-03T06:21:11.261Z,14.99
2019-05-03T06:23:45.343Z,15.06
2019-05-03T06:26:32.013Z,15.13
2019-05-03T06:29:01.141Z,15.21
2019-05-03T06:31:37.273Z,15.24
2019-05-03T06:34:06.409Z,15.34
2019-05-03T06:36:36.189Z,15.56
2019-05-03T06:39:08.390Z,15.75
2019-05-03T06:41:37.677Z,15.96
2019-05-03T06:44:06.874Z,16.30
2019-05-03T06:46:49.342Z,16.62
2019-05-03T06:49:18.429Z,16.86
2019-05-03T06:51:49.688Z,17.01
2019-05-03T06:54:20.574Z,17.07
2019-05-03T06:56:49.887Z,17.13
2019-05-03T06:59:35.748Z,17.21
2019-05-03T07:02:18.233Z,17.25
2019-05-03T07:04:49.382Z,17.31
2019-05-03T07:07:35.462Z,17.27
2019-05-03T07:10:30.689Z,17.66
2019-05-03T07:13:00.710Z,18.37
2019-05-03T07:15:36.828Z,19.12
2019-05-03T07:18:06.097Z,19.92
2019-05-03T07:23:24.480Z,20.28
2019-05-03T07:25:55.190Z,20.26
2019-05-03T07:28:24.795Z,20.14
2019-05-03T07:30:54.545Z,20.00
2019-05-03T07:33:32.033Z,20.07
2019-05-03T07:36:01.165Z,20.36
2019-05-03T07:38:30.325Z,20.78
2019-05-03T07:40:59.454Z,21.18
2019-05-03T07:43:28.547Z,22.00
2019-05-03T07:45:57.695Z,22.43
2019-05-03T07:48:29.953Z,23.10
2019-05-03T07:50:59.293Z,23.53
2019-05-03T07:53:28.565Z,23.60
2019-05-03T07:56:11.037Z,23.26
2019-05-03T07:59:02.891Z,22.69
2019-05-03T08:01:29.959Z,22.10
2019-05-03T08:03:59.138Z,21.75
2019-05-03T08:06:28.242Z,21.54
2019-05-03T08:12:37.321Z,21.48
2019-05-03T08:15:06.597Z,21.63
2019-05-03T08:17:35.716Z,22.26
2019-05-03T08:20:05.246Z,22.54
2019-05-03T08:22:34.591Z,22.49
2019-05-03T08:25:05.429Z,22.17
2019-05-03T08:27:35.428Z,21.83
2019-05-03T08:30:06.932Z,21.40
2019-05-03T08:32:58.836Z,21.06
2019-05-03T08:35:36.451Z,20.75
2019-05-03T08:38:05.487Z,20.42
2019-05-03T08:40:39.894Z,20.16
2019-05-03T08:43:09.026Z,20.19
2019-05-03T08:45:38.168Z,21.28
2019-05-03T08:48:07.227Z,22.38
2019-05-03T08:50:39.059Z,23.32
2019-05-03T08:53:08.080Z,24.45
2019-05-03T08:55:37.288Z,25.63
2019-05-03T08:58:06.326Z,26.94
2019-05-03T09:00:37.864Z,28.04
2019-05-03T09:03:06.982Z,28.94
2019-05-03T09:05:36.208Z,29.70
2019-05-03T09:08:05.745Z,30.05
2019-05-03T09:10:47.430Z,30.35
2019-05-03T09:13:21.019Z,30.86
2019-05-03T09:15:50.770Z,31.68
2019-05-03T09:18:19.861Z,31.27
2019-05-03T09:20:48.899Z,30.79
2019-05-03T09:23:23.235Z,29.83
2019-05-03T09:25:51.001Z,28.83
2019-05-03T09:28:20.078Z,27.14
2019-05-03T09:30:49.165Z,27.14
2019-05-03T09:33:18.245Z,26.37
2019-05-03T09:35:47.310Z,25.45
2019-05-03T09:38:16.469Z,24.69
2019-05-03T09:40:45.631Z,23.97
2019-05-03T09:43:15.192Z,23.43
2019-05-03T09:45:45.750Z,22.96
2019-05-03T09:48:15.217Z,22.60
2019-05-03T09:50:45.228Z,22.30
2019-05-03T09:53:15.910Z,22.17
2019-05-03T09:55:45.085Z,22.61
2019-05-03T09:58:15.368Z,22.78
2019-05-03T10:00:45.197Z,22.80
2019-05-03T10:03:14.233Z,23.11
2019-05-03T10:05:45.680Z,24.17
2019-05-03T10:08:15.796Z,25.57
2019-05-03T10:11:02.568Z,26.61
2019-05-03T10:13:35.207Z,27.13
2019-05-03T10:16:05.832Z,27.02
2019-05-03T10:18:34.960Z,26.31
2019-05-03T10:21:05.366Z,25.46
2019-05-03T10:23:42.373Z,24.59
2019-05-03T10:26:11.704Z,23.83
2019-05-03T10:28:40.799Z,23.22
2019-05-03T10:31:09.913Z,22.77
2019-05-03T10:34:05.765Z,22.32
2019-05-03T10:36:35.621Z,21.90
2019-05-03T10:39:05.737Z,21.49
2019-05-03T10:41:34.932Z,21.25
2019-05-03T10:44:06.017Z,21.07
2019-05-03T10:46:35.813Z,20.93
2019-05-03T10:49:05.745Z,20.80
2019-05-03T10:51:39.818Z,20.83
2019-05-03T10:54:08.901Z,20.79
2019-05-03T10:56:46.888Z,20.67
2019-05-03T10:59:16.639Z,20.93
2019-05-03T11:27:04.305Z,29.77
2019-05-03T11:29:35.394Z,29.44
2019-05-03T11:32:16.802Z,29.56
2019-05-03T11:34:57.838Z,30.48
2019-05-03T11:37:52.889Z,31.01
2019-05-03T11:40:21.984Z,30.98
2019-05-03T11:42:55.281Z,30.15
2019-05-03T11:45:24.688Z,29.27
2019-05-03T11:47:55.049Z,27.53
2019-05-03T11:50:25.358Z,27.44
2019-05-03T11:52:56.019Z,26.66
2019-05-03T11:55:27.476Z,25.98
2019-05-03T11:57:58.073Z,25.40
2019-05-03T12:00:34.339Z,25.17
2019-05-03T12:03:15.609Z,24.88
2019-05-03T12:05:48.274Z,24.66
2019-05-03T12:08:17.542Z,24.43
2019-05-03T12:14:36.804Z,24.06
2019-05-03T12:17:18.963Z,23.71
2019-05-03T12:19:41.748Z,23.48
2019-05-03T12:22:12.317Z,23.49
2019-05-03T12:24:42.100Z,23.49
2019-05-03T12:27:11.834Z,23.43
2019-05-03T12:29:40.900Z,23.41
2019-05-03T12:32:09.954Z,23.54
2019-05-03T12:34:39.049Z,23.51
2019-05-03T12:37:08.088Z,23.38
2019-05-03T12:39:37.098Z,23.32
2019-05-03T12:42:06.213Z,23.34
2019-05-03T12:44:35.555Z,23.40
2019-05-03T12:47:06.049Z,23.43
2019-05-03T12:49:35.998Z,23.44
2019-05-03T12:52:05.458Z,23.36
2019-05-03T12:54:35.676Z,23.29
2019-05-03T12:57:05.219Z,23.30
2019-05-03T13:00:11.206Z,23.25
2019-05-03T13:02:46.938Z,23.20
2019-05-03T13:05:15.996Z,23.00
2019-05-03T13:07:49.931Z,22.86
2019-05-03T13:10:22.454Z,22.89
2019-05-03T13:12:53.157Z,22.98
2019-05-03T13:15:20.836Z,23.01
2019-05-03T13:17:49.914Z,22.99
2019-05-03T13:20:19.041Z,22.92
2019-05-03T13:22:48.208Z,22.85
2019-05-03T13:25:18.837Z,22.80
2019-05-03T13:27:47.934Z,22.80
2019-05-03T13:30:17.193Z,22.89
2019-05-03T13:32:46.259Z,22.93
2019-05-03T13:35:15.316Z,23.03
2019-05-03T13:37:45.312Z,23.20
2019-05-03T13:40:14.839Z,23.28
2019-05-03T13:42:56.316Z,23.31
2019-05-03T13:45:14.746Z,23.27
2019-05-03T13:47:44.770Z,23.22
2019-05-03T13:50:15.231Z,23.15
2019-05-03T13:52:45.311Z,23.09
2019-05-03T13:55:14.656Z,22.92
2019-05-03T13:57:45.843Z,22.70
2019-05-03T14:00:15.268Z,22.56
2019-05-03T14:02:44.950Z,22.52
2019-05-03T14:05:15.488Z,22.41
2019-05-03T14:07:44.822Z,22.46
2019-05-03T14:10:13.777Z,22.56
2019-05-03T14:12:43.034Z,22.67
2019-05-03T14:15:12.131Z,22.67
2019-05-03T14:17:41.203Z,22.68
2019-05-03T14:20:47.314Z,22.63
2019-05-03T14:23:16.417Z,22.50
2019-05-03T14:25:45.475Z,22.41
2019-05-03T14:28:14.713Z,22.38
2019-05-03T14:30:45.426Z,22.27
2019-05-03T14:33:14.705Z,22.22
2019-05-03T14:35:45.214Z,22.19
2019-05-03T14:38:15.102Z,22.12
2019-05-03T14:40:44.917Z,22.09
2019-05-03T14:43:15.468Z,22.07
2019-05-03T14:45:44.728Z,22.02
2019-05-03T14:48:15.222Z,21.97
2019-05-03T14:50:45.584Z,21.88
2019-05-03T14:53:14.933Z,21.77
2019-05-03T14:55:55.223Z,21.62
2019-05-03T14:58:49.222Z,21.51
2019-05-03T15:01:25.844Z,21.35
2019-05-03T15:03:55.071Z,21.09
2019-05-03T15:06:24.951Z,20.98
2019-05-03T15:08:54.714Z,20.87
2019-05-03T15:11:23.961Z,20.80
2019-05-03T15:13:54.954Z,20.68
2019-05-03T15:16:25.017Z,20.59
2019-05-03T15:18:54.834Z,20.57
2019-05-03T15:21:25.200Z,20.51
2019-05-03T15:23:54.812Z,20.46
2019-05-03T15:26:24.830Z,20.34
2019-05-03T15:28:55.451Z,20.29
2019-05-03T15:31:24.682Z,20.22
2019-05-03T15:33:55.511Z,20.23
2019-05-03T15:36:24.823Z,20.15
2019-05-03T15:38:55.213Z,20.05
2019-05-03T15:41:25.199Z,19.97
2019-05-03T15:44:00.109Z,19.96
2019-05-03T15:46:51.270Z,19.98
2019-05-03T15:49:20.431Z,19.84
2019-05-03T15:51:49.562Z,19.84
2019-05-03T15:54:18.612Z,19.85
2019-05-03T15:56:47.645Z,19.82
2019-05-03T15:59:16.714Z,19.85
2019-05-03T16:01:45.785Z,19.78
2019-05-03T16:04:14.872Z,19.73
2019-05-03T16:06:44.798Z,19.70
2019-05-03T16:09:15.246Z,19.58
2019-05-03T16:11:45.089Z,19.39
2019-05-03T16:14:15.310Z,19.29
2019-05-03T16:16:45.109Z,19.26
2019-05-03T16:19:14.691Z,19.21
2019-05-03T16:21:45.286Z,19.22
2019-05-03T16:24:15.436Z,19.22
2019-05-03T16:27:02.146Z,19.25
2019-05-03T16:29:31.210Z,18.71
2019-05-03T16:32:00.273Z,19.22
2019-05-03T16:34:29.442Z,19.16
2019-05-03T16:36:58.469Z,19.10
2019-05-03T16:39:27.598Z,19.07
2019-05-03T16:41:56.641Z,19.01
2019-05-03T16:44:25.753Z,18.96
2019-05-03T16:46:55.415Z,18.93
2019-05-03T16:49:24.687Z,18.94
2019-05-03T16:51:54.913Z,18.96
2019-05-03T16:54:25.457Z,18.96
2019-05-03T16:56:54.992Z,18.87
2019-05-03T16:59:24.721Z,18.79
2019-05-03T17:01:55.177Z,18.74
2019-05-03T17:04:29.036Z,18.70
2019-05-03T17:07:17.032Z,18.53
2019-05-03T17:09:54.414Z,18.42
2019-05-03T17:12:28.097Z,18.27
2019-05-03T17:14:57.271Z,18.13
2019-05-03T17:17:26.386Z,18.06
2019-05-03T17:19:55.445Z,17.95
2019-05-03T17:22:25.189Z,17.88
2019-05-03T17:24:54.616Z,17.83
2019-05-03T17:27:24.981Z,17.83
2019-05-03T17:29:55.257Z,17.85
2019-05-03T17:32:24.780Z,17.78
2019-05-03T17:34:54.899Z,17.72
2019-05-03T17:37:25.716Z,17.69
2019-05-03T17:40:14.733Z,17.58
2019-05-03T17:43:00.472Z,17.56
2019-05-03T17:45:35.107Z,17.48
2019-05-03T17:48:04.611Z,17.46
2019-05-03T17:50:34.780Z,17.42
2019-05-03T17:53:23.041Z,17.31
2019-05-03T17:55:57.892Z,17.27
2019-05-03T17:58:32.303Z,17.18
2019-05-03T18:01:32.446Z,17.12
2019-05-03T18:04:09.468Z,17.04
2019-05-03T18:06:45.249Z,17.00
2019-05-03T18:09:23.334Z,16.90
2019-05-03T18:11:58.606Z,16.88
2019-05-03T18:14:27.683Z,16.82
2019-05-03T18:16:56.766Z,16.75
2019-05-03T18:19:25.905Z,16.68
2019-05-03T18:21:55.463Z,16.59
2019-05-03T18:24:24.790Z,16.55
2019-05-03T18:26:54.010Z,16.51
2019-05-03T18:29:25.129Z,16.49
2019-05-03T18:31:55.068Z,16.46
2019-05-03T18:34:24.950Z,16.44
2019-05-03T18:36:54.274Z,16.44
2019-05-03T18:39:25.111Z,16.44
2019-05-03T18:41:54.432Z,16.42
2019-05-03T18:44:34.694Z,16.38
2019-05-03T18:47:07.626Z,16.33
2019-05-03T18:49:36.713Z,16.05
2019-05-03T18:52:05.810Z,16.17
2019-05-03T18:54:35.181Z,16.16
2019-05-03T18:57:05.087Z,16.14
2019-05-03T18:59:34.345Z,16.12
2019-05-03T19:02:05.386Z,16.10
2019-05-03T19:04:41.327Z,16.08
2019-05-03T19:07:21.515Z,16.05
2019-05-03T19:10:15.650Z,16.01
2019-05-03T19:12:55.237Z,15.97
2019-05-03T19:15:25.098Z,15.95
2019-05-03T19:18:01.113Z,15.90
2019-05-03T19:20:30.269Z,15.91
2019-05-03T19:22:59.482Z,15.89
2019-05-03T19:25:28.631Z,15.87
2019-05-03T19:27:57.689Z,15.88
2019-05-03T19:30:26.758Z,15.89
2019-05-03T19:32:55.822Z,15.88
2019-05-03T19:35:27.625Z,15.85
2019-05-03T19:37:57.573Z,15.82
2019-05-03T19:40:26.956Z,15.78
2019-05-03T19:42:56.204Z,15.76
2019-05-03T19:45:25.535Z,15.77
2019-05-03T19:47:55.208Z,15.76
2019-05-03T19:50:27.119Z,15.72
2019-05-03T19:53:14.512Z,15.68
2019-05-03T19:55:44.861Z,15.62
2019-05-03T19:58:14.791Z,15.60
2019-05-03T20:01:03.024Z,15.57
2019-05-03T20:03:38.799Z,15.58
2019-05-03T20:06:25.202Z,15.54
2019-05-03T20:08:59.279Z,15.53
2019-05-03T20:11:28.352Z,15.49
2019-05-03T20:13:57.520Z,15.48
2019-05-03T20:16:26.598Z,15.45
2019-05-03T20:18:55.690Z,15.45
2019-05-03T20:21:25.294Z,15.44
2019-05-03T20:23:55.565Z,15.44
2019-05-03T20:26:25.300Z,15.45
2019-05-03T20:28:55.297Z,15.41
2019-05-03T20:31:25.254Z,15.43
2019-05-03T20:33:54.875Z,15.41
2019-05-03T20:36:24.141Z,15.37
2019-05-03T20:38:54.903Z,15.37
2019-05-03T20:41:25.538Z,15.36
2019-05-03T20:44:07.564Z,15.34
2019-05-03T20:46:45.726Z,15.32
2019-05-03T20:49:15.278Z,15.28
2019-05-03T20:51:45.042Z,15.21
2019-05-03T20:54:15.374Z,15.20
2019-05-03T20:56:45.567Z,15.18
2019-05-03T20:59:17.167Z,15.14
2019-05-03T21:01:46.290Z,15.16
2019-05-03T21:04:15.550Z,15.09
2019-05-03T21:06:45.506Z,15.07
2019-05-03T21:09:14.988Z,15.04
2019-05-03T21:11:44.804Z,15.00
2019-05-03T21:14:15.520Z,14.97
2019-05-03T21:17:07.051Z,14.97
2019-05-03T21:19:50.589Z,14.93
2019-05-03T21:22:26.049Z,14.90
2019-05-03T21:25:06.312Z,14.83
2019-05-03T21:27:35.222Z,14.82
2019-05-03T21:30:05.071Z,14.80
2019-05-03T21:32:35.167Z,14.78
2019-05-03T21:35:05.436Z,14.79
2019-05-03T21:37:34.892Z,14.79
2019-05-03T21:40:05.141Z,14.79
2019-05-03T21:42:35.056Z,14.75
2019-05-03T21:45:04.854Z,14.75
2019-05-03T21:47:48.621Z,14.74
2019-05-03T21:50:19.161Z,14.71
2019-05-03T21:52:48.236Z,14.66
2019-05-03T21:55:17.361Z,14.60
2019-05-03T21:57:46.694Z,14.57
2019-05-03T22:00:16.667Z,14.53
2019-05-03T22:02:45.754Z,14.50
2019-05-03T22:05:16.488Z,14.48
2019-05-03T22:07:45.762Z,14.46
2019-05-03T22:10:15.097Z,14.43
2019-05-03T22:12:44.319Z,14.41
2019-05-03T22:15:21.191Z,14.39
2019-05-03T22:18:15.282Z,14.38
2019-05-03T22:20:54.925Z,14.37
2019-05-03T22:23:42.288Z,14.32
2019-05-03T22:26:11.357Z,14.27
2019-05-03T22:28:40.472Z,14.19
2019-05-03T22:31:09.500Z,14.17
2019-05-03T22:33:38.548Z,14.17
2019-05-03T22:36:09.056Z,14.19
2019-05-03T22:38:38.523Z,14.17
2019-05-03T22:41:07.733Z,14.17
2019-05-03T22:43:36.745Z,14.15
2019-05-03T22:46:05.759Z,14.14
2019-05-03T22:48:34.829Z,14.13
2019-05-03T22:51:04.839Z,14.10
2019-05-03T22:53:34.363Z,14.05
2019-05-03T22:56:04.876Z,14.02
2019-05-03T22:58:35.464Z,13.96
2019-05-03T23:01:04.596Z,13.91
2019-05-03T23:03:44.619Z,13.87
2019-05-03T23:06:20.345Z,13.80
2019-05-03T23:08:44.016Z,13.78
2019-05-03T23:11:13.044Z,13.70
2019-05-03T23:13:42.075Z,13.70
2019-05-03T23:16:11.066Z,13.70
2019-05-03T23:18:41.036Z,13.66
2019-05-03T23:21:15.793Z,13.63
2019-05-03T23:23:54.972Z,13.64
2019-05-03T23:26:25.405Z,13.59
2019-05-03T23:28:55.101Z,13.55
2019-05-03T23:31:25.167Z,13.52
2019-05-03T23:33:54.707Z,13.54
2019-05-03T23:36:33.100Z,13.53
2019-05-03T23:38:54.752Z,13.51
2019-05-03T23:41:24.530Z,13.49
2019-05-03T23:43:53.750Z,13.44
2019-05-03T23:46:28.787Z,13.42
2019-05-03T23:48:57.896Z,13.40
2019-05-03T23:51:44.793Z,13.38
2019-05-03T23:54:14.967Z,13.36
2019-05-03T23:56:45.817Z,13.26
2019-05-03T23:59:15.136Z,13.25
